• Join FlightAware (Why Join?)
  • Login
  • US Flag 
08:17AM EDT


 

Airport Tracker/Info


-or-


 

Live Flight TrackerFlight Track Log ✈ A6-EGC ✈ 15-Apr-2013 ✈ OMDB / DXB - VABB / BOM

Flight Track Log - Related Links

Times and Time Zones

All times are in EDT time to prevent confusion due to time zone crossing. See the A6-EGC flight status page for this flight to view local times or setup timezone preferences in your user account.

Time Position Orientation Groundspeed Altitude Reporting Facility
EDT Latitude Longitude Course Direction KTS MPH feet Rate Location/Type
02:44PM 25.4630 55.3260 27° Northeast 284 327 7,100  Level FlightAware
02:44PM 25.4910 55.3420 27° Northeast 284 327 7,100 2,160 Level FlightAware
02:47PM 25.3951 55.6671 108° East  Level Estimated
02:48PM 25.3572 55.7945 108° East  Level Estimated
02:49PM 25.3193 55.9217 108° East  Level Estimated
02:49PM 25.4210 55.8490 108° East 444 511 18,300  Level FlightAware
02:51PM 25.3484 56.0884 108° East  Level Estimated
02:51PM 25.3740 56.1480 108° East 485 558 22,400  Level FlightAware
02:52PM 25.3450 56.3340 100° East 503 579 24,800 1,200 Climbing FlightAware
02:53PM 25.3320 56.4200 99° East 503 579 24,800 1,080 Level FlightAware
02:54PM 25.2710 56.7010 103° East 529 609 27,400 1,080 Climbing FlightAware
02:55PM 25.2490 56.7900 105° East 529 609 27,400  Level FlightAware
02:56PM 25.2280 56.8790 105° East 529 609 27,400 2,280 Level FlightAware
02:56PM 25.1360 57.0400 122° Southeast 557 641 30,900 2,280 Climbing FlightAware
02:57PM 25.1030 57.1300 112° Southeast 557 641 30,900  Level FlightAware
02:58PM 25.0700 57.2190 112° Southeast 557 641 30,900  Level FlightAware
02:58PM 25.0380 57.3090 111° Southeast 557 641 30,900  Level FlightAware
02:59PM 25.0050 57.3990 112° Southeast 557 641 30,900  Level FlightAware
03:00PM 24.9720 57.4880 112° Southeast 557 641 30,900  Level FlightAware
03:01PM 24.9310 57.6000 112° Southeast 557 641 30,900  Level FlightAware
03:01PM 24.8980 57.6900 112° Southeast 557 641 30,900  Level FlightAware
03:02PM 24.8650 57.7800 112° Southeast 557 641 30,900  Level FlightAware
03:03PM 24.8320 57.8690 112° Southeast 557 641 30,900  Level FlightAware
03:03PM 24.8000 57.9590 111° Southeast 557 641 30,900  Level FlightAware
03:04PM 24.7580 58.0700 113° Southeast 557 641 30,900  Level FlightAware
03:05PM 24.7260 58.1600 111° Southeast 557 641 30,900  Level FlightAware
03:05PM 24.6930 58.2490 112° Southeast 557 641 30,900  Level FlightAware
03:08PM 24.6095 58.5063 110° East  Level Estimated
03:09PM 24.5687 58.6317 110° East  Level Estimated
03:10PM 24.5277 58.7570 110° East  Level Estimated
03:11PM 24.4866 58.8822 110° East  Level Estimated
03:12PM 24.4454 59.0074 110° East  Level Estimated
03:13PM 24.4041 59.1324 110° East  Level Estimated
03:14PM 24.3627 59.2574 110° East  Level Estimated
03:15PM 24.3213 59.3823 110° East  Level Estimated
03:16PM 24.2797 59.5071 110° East  Level Estimated
03:17PM 24.2380 59.6318 110° East  Level Estimated
03:18PM 24.1962 59.7565 110° East  Level Estimated
03:19PM 24.1543 59.8811 110° East  Level Estimated
03:20PM 24.1123 60.0055 110° East  Level Estimated
03:21PM 24.0702 60.1299 110° East  Level Estimated
03:22PM 24.0280 60.2543 110° East  Level Estimated
03:23PM 23.9857 60.3785 110° East  Level Estimated
03:24PM 23.9433 60.5027 110° East  Level Estimated
03:25PM 23.9008 60.6267 111° Southeast  Level Estimated
03:26PM 23.8582 60.7507 111° Southeast  Level Estimated
03:27PM 23.8155 60.8746 111° Southeast  Level Estimated
03:28PM 23.7727 60.9985 111° Southeast  Level Estimated
03:29PM 23.7298 61.1222 111° Southeast  Level Estimated
03:30PM 23.6868 61.2459 111° Southeast  Level Estimated
03:31PM 23.6437 61.3695 111° Southeast  Level Estimated
03:32PM 23.6005 61.4930 111° Southeast  Level Estimated
03:33PM 23.5572 61.6164 111° Southeast  Level Estimated
03:34PM 23.5138 61.7398 111° Southeast  Level Estimated
03:35PM 23.4703 61.8630 111° Southeast  Level Estimated
03:36PM 23.4267 61.9862 111° Southeast  Level Estimated
03:37PM 23.3831 62.1093 111° Southeast  Level Estimated
03:38PM 23.3393 62.2323 111° Southeast  Level Estimated
03:39PM 23.2954 62.3553 111° Southeast  Level Estimated
03:40PM 23.2515 62.4781 111° Southeast  Level Estimated
03:41PM 23.2074 62.6009 111° Southeast  Level Estimated
03:42PM 23.1632 62.7236 111° Southeast  Level Estimated
03:43PM 23.1190 62.8462 111° Southeast  Level Estimated
03:44PM 23.0746 62.9687 111° Southeast  Level Estimated
03:45PM 23.0302 63.0912 112° Southeast  Level Estimated
03:46PM 22.9857 63.2136 112° Southeast  Level Estimated
03:47PM 22.9410 63.3358 112° Southeast  Level Estimated
03:48PM 22.8963 63.4581 112° Southeast  Level Estimated
03:49PM 22.8515 63.5802 112° Southeast  Level Estimated
03:50PM 22.8066 63.7022 112° Southeast  Level Estimated
03:51PM 22.7616 63.8242 112° Southeast  Level Estimated
03:52PM 22.7165 63.9461 112° Southeast  Level Estimated
03:53PM 22.6713 64.0679 112° Southeast  Level Estimated
03:54PM 22.6260 64.1896 112° Southeast  Level Estimated
03:55PM 22.5807 64.3113 112° Southeast  Level Estimated
03:56PM 22.5352 64.4329 112° Southeast  Level Estimated
03:57PM 22.4897 64.5544 112° Southeast  Level Estimated
03:58PM 22.4440 64.6758 112° Southeast  Level Estimated
03:59PM 22.3983 64.7971 112° Southeast  Level Estimated
04:00PM 22.3525 64.9183 112° Southeast  Level Estimated
04:01PM 22.3066 65.0395 112° Southeast  Level Estimated
04:02PM 22.2606 65.1606 112° Southeast  Level Estimated
04:03PM 22.2145 65.2816 112° Southeast  Level Estimated
04:04PM 22.1683 65.4025 112° Southeast  Level Estimated
04:05PM 22.1220 65.5234 112° Southeast  Level Estimated
04:06PM 22.0757 65.6442 112° Southeast  Level Estimated
04:07PM 22.0292 65.7648 113° Southeast  Level Estimated
04:08PM 21.9827 65.8855 113° Southeast  Level Estimated
04:09PM 21.9360 66.0060 113° Southeast  Level Estimated
04:10PM 21.8893 66.1264 113° Southeast  Level Estimated
04:11PM 21.8425 66.2468 113° Southeast  Level Estimated
04:12PM 21.7956 66.3671 113° Southeast  Level Estimated
04:13PM 21.7487 66.4873 113° Southeast  Level Estimated
04:14PM 21.7016 66.6075 113° Southeast  Level Estimated
04:15PM 21.6544 66.7275 113° Southeast  Level Estimated
04:16PM 21.6072 66.8475 113° Southeast  Level Estimated
04:17PM 21.5599 66.9674 113° Southeast  Level Estimated
04:18PM 21.5125 67.0872 113° Southeast  Level Estimated
04:19PM 21.4650 67.2070 113° Southeast  Level Estimated
04:20PM 21.4174 67.3266 113° Southeast  Level Estimated
04:21PM 21.3697 67.4462 113° Southeast  Level Estimated
04:22PM 21.3220 67.5657 113° Southeast  Level Estimated
04:23PM 21.2742 67.6852 113° Southeast  Level Estimated
04:24PM 21.2262 67.8045 113° Southeast  Level Estimated
04:25PM 21.1782 67.9238 113° Southeast  Level Estimated
04:26PM 21.1302 68.0430 113° Southeast  Level Estimated
04:27PM 21.0820 68.1621 113° Southeast  Level Estimated
04:28PM 21.0338 68.2812 113° Southeast  Level Estimated
04:29PM 20.9854 68.4001 113° Southeast  Level Estimated
04:30PM 20.9370 68.5190 114° Southeast  Level Estimated
04:31PM 20.8885 68.6378 114° Southeast  Level Estimated
04:32PM 20.8399 68.7566 114° Southeast  Level Estimated
04:33PM 20.7913 68.8752 114° Southeast  Level Estimated
04:34PM 20.7425 68.9938 114° Southeast  Level Estimated
04:35PM 20.6937 69.1123 114° Southeast  Level Estimated
04:36PM 20.6448 69.2308 114° Southeast  Level Estimated
04:37PM 20.5958 69.3491 114° Southeast  Level Estimated
04:38PM 20.5467 69.4674 114° Southeast  Level Estimated
04:39PM 20.4976 69.5856 114° Southeast  Level Estimated
04:40PM 20.4484 69.7037 114° Southeast  Level Estimated
04:41PM 20.3990 69.8218 114° Southeast  Level Estimated
04:42PM 20.3497 69.9398 114° Southeast  Level Estimated
04:43PM 20.3002 70.0577 114° Southeast  Level Estimated
04:44PM 20.2507 70.1755 114° Southeast  Level Estimated
04:45PM 20.2010 70.2932 114° Southeast  Level Estimated
04:46PM 20.1513 70.4109 114° Southeast  Level Estimated
04:47PM 20.1016 70.5285 114° Southeast  Level Estimated
04:48PM 20.0517 70.6460 114° Southeast  Level Estimated
04:49PM 20.0018 70.7635 114° Southeast  Level Estimated
04:50PM 19.9518 70.8809 114° Southeast  Level Estimated
04:51PM 19.9017 70.9982 114° Southeast  Level Estimated
04:52PM 19.8515 71.1154 114° Southeast  Level Estimated
04:53PM 19.8013 71.2326 114° Southeast  Level Estimated
04:54PM 19.7509 71.3496 115° Southeast  Level Estimated
04:55PM 19.7006 71.4667 115° Southeast  Level Estimated
04:56PM 19.6501 71.5836 115° Southeast  Level Estimated
04:57PM 19.5995 71.7004 115° Southeast  Level Estimated
04:58PM 19.5489 71.8172 115° Southeast  Level Estimated
04:59PM 19.4982 71.9339 115° Southeast  Level Estimated
05:00PM 19.4474 72.0506 115° Southeast  Level Estimated
05:01PM 19.3966 72.1671 115° Southeast  Level Estimated
05:02PM 19.3457 72.2836 115° Southeast  Level Estimated
05:03PM 19.2947 72.4000 115° Southeast  Level Estimated
05:04PM 19.2436 72.5164 115° Southeast  Level Estimated
05:05PM 19.1925 72.6327 115° Southeast  Level Estimated
05:06PM 19.1413 72.7489 115° Southeast  Level Estimated
05:07PM 19.0900 72.8650 115° Southeast  Level Estimated
05:08PM 19.0887 72.8679 115° Southeast  Level Estimated
05:09PM 19.0887 72.8679 193° South  Level Estimated
05:10PM 19.0887 72.8679 193° South  Level Estimated
05:11PM 19.0887 72.8679 193° South  Level Estimated
05:12PM 19.0887 72.8679 193° South  Level Estimated
05:13PM 19.0887 72.8679 193° South  Level Estimated